createdAt,value
2018-09-02T00:00:25.132Z,1022.34
2018-09-02T00:01:25.129Z,1022.33
2018-09-02T00:02:25.120Z,1022.33
2018-09-02T00:03:25.113Z,1022.27
2018-09-02T00:04:25.114Z,1022.34
2018-09-02T00:05:25.103Z,1022.30
2018-09-02T00:06:25.103Z,1022.31
2018-09-02T00:07:25.117Z,1022.35
2018-09-02T00:08:25.089Z,1022.29
2018-09-02T00:09:25.081Z,1022.34
2018-09-02T00:10:25.073Z,1022.30
2018-09-02T00:11:25.066Z,1022.30
2018-09-02T00:12:25.063Z,1022.26
2018-09-02T00:13:25.069Z,1022.24
2018-09-02T00:14:25.061Z,1022.20
2018-09-02T00:15:25.061Z,1022.21
2018-09-02T00:16:25.051Z,1022.19
2018-09-02T00:17:25.057Z,1022.18
2018-09-02T00:18:25.037Z,1022.19
2018-09-02T00:19:25.036Z,1022.21
2018-09-02T00:20:25.068Z,1022.16
2018-09-02T00:21:25.030Z,1022.17
2018-09-02T00:22:25.035Z,1022.19
2018-09-02T00:23:25.028Z,1022.13
2018-09-02T00:24:25.012Z,1022.12
2018-09-02T00:25:25.011Z,1022.12
2018-09-02T00:26:25.021Z,1022.14
2018-09-02T00:27:25.009Z,1022.14
2018-09-02T00:28:25.027Z,1022.19
2018-09-02T00:29:25.002Z,1022.18
2018-09-02T00:30:25.035Z,1022.14
2018-09-02T00:31:24.991Z,1022.14
2018-09-02T00:32:24.976Z,1022.17
2018-09-02T00:33:25.049Z,1022.15
2018-09-02T00:34:24.970Z,1022.10
2018-09-02T00:35:24.955Z,1022.13
2018-09-02T00:36:24.965Z,1022.13
2018-09-02T00:37:24.946Z,1022.13
2018-09-02T00:38:24.945Z,1022.11
2018-09-02T00:39:24.937Z,1022.15
2018-09-02T00:40:24.938Z,1022.15
2018-09-02T00:41:24.937Z,1022.16
2018-09-02T00:42:24.938Z,1022.16
2018-09-02T00:43:24.925Z,1022.16
2018-09-02T00:44:24.912Z,1022.19
2018-09-02T00:45:24.911Z,1022.15
2018-09-02T00:46:24.891Z,1022.18
2018-09-02T00:47:24.905Z,1022.15
2018-09-02T00:48:24.895Z,1022.14
2018-09-02T00:49:24.909Z,1022.14
2018-09-02T00:50:24.883Z,1022.10
2018-09-02T00:51:24.932Z,1022.10
2018-09-02T00:52:24.881Z,1022.11
2018-09-02T00:53:24.876Z,1022.11
2018-09-02T00:54:24.874Z,1022.07
2018-09-02T00:55:24.855Z,1022.11
2018-09-02T00:56:24.858Z,1022.09
2018-09-02T00:57:24.856Z,1022.09
2018-09-02T00:58:24.852Z,1022.08
2018-09-02T00:59:24.840Z,1022.14
2018-09-02T01:00:24.846Z,1022.13
2018-09-02T01:01:24.833Z,1022.11
2018-09-02T01:02:24.835Z,1022.12
2018-09-02T01:03:24.821Z,1022.09
2018-09-02T01:04:24.821Z,1022.07
2018-09-02T01:05:24.818Z,1022.04
2018-09-02T01:06:24.813Z,1022.06
2018-09-02T01:07:24.803Z,1022.07
2018-09-02T01:08:24.814Z,1022.11
2018-09-02T01:09:24.809Z,1022.10
2018-09-02T01:10:27.013Z,1022.13
2018-09-02T01:11:24.782Z,1022.12
2018-09-02T01:12:24.781Z,1022.18
2018-09-02T01:13:24.776Z,1022.17
2018-09-02T01:14:24.783Z,1022.16
2018-09-02T01:15:24.775Z,1022.20
2018-09-02T01:16:24.783Z,1022.21
2018-09-02T01:17:24.752Z,1022.20
2018-09-02T01:18:24.762Z,1022.19
2018-09-02T01:19:24.745Z,1022.22
2018-09-02T01:20:24.784Z,1022.25
2018-09-02T01:21:24.733Z,1022.21
2018-09-02T01:22:24.725Z,1022.23
2018-09-02T01:23:24.736Z,1022.27
2018-09-02T01:24:24.716Z,1022.28
2018-09-02T01:25:24.725Z,1022.27
2018-09-02T01:26:24.706Z,1022.33
2018-09-02T01:27:24.708Z,1022.33
2018-09-02T01:28:24.703Z,1022.34
2018-09-02T01:29:24.690Z,1022.34
2018-09-02T01:30:24.692Z,1022.35
2018-09-02T01:31:24.702Z,1022.33
2018-09-02T01:32:24.688Z,1022.33
2018-09-02T01:33:24.678Z,1022.34
2018-09-02T01:34:24.671Z,1022.32
2018-09-02T01:35:24.665Z,1022.36
2018-09-02T01:36:24.658Z,1022.33
2018-09-02T01:37:24.662Z,1022.35
2018-09-02T01:38:24.664Z,1022.35
2018-09-02T01:39:24.645Z,1022.30
2018-09-02T01:40:24.643Z,1022.35
2018-09-02T01:41:24.642Z,1022.35
2018-09-02T01:42:24.631Z,1022.32
2018-09-02T01:43:24.636Z,1022.32
2018-09-02T01:44:24.625Z,1022.35
2018-09-02T01:45:24.617Z,1022.35
2018-09-02T01:46:24.612Z,1022.32
2018-09-02T01:47:24.603Z,1022.30
2018-09-02T01:48:24.603Z,1022.29
2018-09-02T01:49:24.611Z,1022.34
2018-09-02T01:50:24.596Z,1022.30
2018-09-02T01:51:24.592Z,1022.34
2018-09-02T01:52:24.586Z,1022.31
2018-09-02T01:53:24.581Z,1022.34
2018-09-02T01:54:24.568Z,1022.32
2018-09-02T01:55:24.578Z,1022.33
2018-09-02T01:56:24.567Z,1022.30
2018-09-02T01:57:24.566Z,1022.30
2018-09-02T01:58:24.558Z,1022.27
2018-09-02T01:59:24.549Z,1022.29
2018-09-02T02:00:24.541Z,1022.27
2018-09-02T02:01:24.541Z,1022.26
2018-09-02T02:02:24.548Z,1022.25
2018-09-02T02:03:24.528Z,1022.29
2018-09-02T02:04:24.554Z,1022.24
2018-09-02T02:05:24.512Z,1022.24
2018-09-02T02:06:24.524Z,1022.23
2018-09-02T02:07:24.512Z,1022.23
2018-09-02T02:08:24.512Z,1022.20
2018-09-02T02:09:24.501Z,1022.24
2018-09-02T02:10:24.512Z,1022.23
2018-09-02T02:11:24.497Z,1022.21
2018-09-02T02:12:24.481Z,1022.18
2018-09-02T02:13:24.491Z,1022.17
2018-09-02T02:14:24.488Z,1022.22
2018-09-02T02:15:24.473Z,1022.19
2018-09-02T02:16:24.462Z,1022.23
2018-09-02T02:17:24.469Z,1022.21
2018-09-02T02:18:24.458Z,1022.21
2018-09-02T02:19:24.453Z,1022.21
2018-09-02T02:20:24.452Z,1022.16
2018-09-02T02:21:24.447Z,1022.18
2018-09-02T02:22:24.444Z,1022.18
2018-09-02T02:23:24.442Z,1022.18
2018-09-02T02:24:24.427Z,1022.15
2018-09-02T02:25:24.449Z,1022.17
2018-09-02T02:26:24.419Z,1022.16
2018-09-02T02:27:24.417Z,1022.14
2018-09-02T02:28:24.419Z,1022.17
2018-09-02T02:29:24.402Z,1022.16
2018-09-02T02:30:24.397Z,1022.11
2018-09-02T02:31:24.397Z,1022.12
2018-09-02T02:32:24.385Z,1022.12
2018-09-02T02:33:24.387Z,1022.14
2018-09-02T02:34:24.377Z,1022.12
2018-09-02T02:35:24.367Z,1022.06
2018-09-02T02:36:24.369Z,1022.12
2018-09-02T02:37:24.369Z,1022.06
2018-09-02T02:38:24.356Z,1022.08
2018-09-02T02:39:24.352Z,1022.12
2018-09-02T02:40:24.351Z,1022.03
2018-09-02T02:41:24.353Z,1022.05
2018-09-02T02:42:24.338Z,1022.01
2018-09-02T02:43:24.338Z,1022.02
2018-09-02T02:44:24.348Z,1022.01
2018-09-02T02:45:24.338Z,1022.03
2018-09-02T02:46:24.339Z,1021.99
2018-09-02T02:47:24.330Z,1022.04
2018-09-02T02:48:24.307Z,1022.00
2018-09-02T02:49:24.298Z,1022.01
2018-09-02T02:50:24.295Z,1022.00
2018-09-02T02:51:24.293Z,1021.95
2018-09-02T02:52:24.293Z,1021.97
2018-09-02T02:53:24.292Z,1021.97
2018-09-02T02:54:24.298Z,1021.96
2018-09-02T02:55:24.272Z,1021.96
2018-09-02T02:56:24.274Z,1021.93
2018-09-02T02:57:24.262Z,1021.92
2018-09-02T02:58:24.267Z,1021.87
2018-09-02T02:59:24.242Z,1021.88
2018-09-02T03:00:24.257Z,1021.86
2018-09-02T03:01:24.237Z,1021.84
2018-09-02T03:02:24.238Z,1021.85
2018-09-02T03:03:24.248Z,1021.85
2018-09-02T03:04:24.258Z,1021.84
2018-09-02T03:05:24.224Z,1021.87
2018-09-02T03:06:24.218Z,1021.88
2018-09-02T03:07:24.219Z,1021.85
2018-09-02T03:08:24.213Z,1021.85
2018-09-02T03:09:24.214Z,1021.83
2018-09-02T03:10:24.204Z,1021.81
2018-09-02T03:11:24.199Z,1021.77
2018-09-02T03:12:24.190Z,1021.78
2018-09-02T03:13:24.187Z,1021.78
2018-09-02T03:14:24.183Z,1021.78
2018-09-02T03:15:24.192Z,1021.83
2018-09-02T03:16:24.177Z,1021.80
2018-09-02T03:17:24.172Z,1021.81
2018-09-02T03:18:24.168Z,1021.79
2018-09-02T03:19:24.162Z,1021.85
2018-09-02T03:20:24.178Z,1021.81
2018-09-02T03:21:24.151Z,1021.81
2018-09-02T03:22:24.144Z,1021.84
2018-09-02T03:23:24.139Z,1021.81
2018-09-02T03:24:24.138Z,1021.80
2018-09-02T03:25:24.136Z,1021.80
2018-09-02T03:26:24.130Z,1021.82
2018-09-02T03:27:24.123Z,1021.80
2018-09-02T03:28:24.119Z,1021.82
2018-09-02T03:29:24.104Z,1021.80
2018-09-02T03:30:24.110Z,1021.81
2018-09-02T03:31:24.108Z,1021.82
2018-09-02T03:32:24.095Z,1021.81
2018-09-02T03:33:24.084Z,1021.79
2018-09-02T03:34:24.101Z,1021.83
2018-09-02T03:35:24.089Z,1021.83
2018-09-02T03:36:24.080Z,1021.79
2018-09-02T03:37:24.075Z,1021.80
2018-09-02T03:38:24.065Z,1021.77
2018-09-02T03:39:24.050Z,1021.80
2018-09-02T03:40:24.076Z,1021.78
2018-09-02T03:41:24.045Z,1021.76
2018-09-02T03:42:24.060Z,1021.76
2018-09-02T03:43:24.081Z,1021.78
2018-09-02T03:44:24.035Z,1021.74
2018-09-02T03:45:24.028Z,1021.78
2018-09-02T03:46:24.043Z,1021.74
2018-09-02T03:47:24.022Z,1021.74
2018-09-02T03:48:24.009Z,1021.77
2018-09-02T03:49:24.025Z,1021.76
2018-09-02T03:50:23.999Z,1021.74
2018-09-02T03:51:24.006Z,1021.75
2018-09-02T03:52:24.015Z,1021.72
2018-09-02T03:53:23.984Z,1021.71
2018-09-02T03:54:23.979Z,1021.70
2018-09-02T03:55:23.984Z,1021.68
2018-09-02T03:56:23.977Z,1021.66
2018-09-02T03:57:23.976Z,1021.71
2018-09-02T03:58:23.958Z,1021.70
2018-09-02T03:59:23.956Z,1021.70
2018-09-02T04:00:23.954Z,1021.75
2018-09-02T04:01:23.963Z,1021.71
2018-09-02T04:02:23.943Z,1021.76
2018-09-02T04:03:23.940Z,1021.73
2018-09-02T04:04:23.954Z,1021.70
2018-09-02T04:05:23.928Z,1021.67
2018-09-02T04:06:23.925Z,1021.68
2018-09-02T04:07:23.927Z,1021.64
2018-09-02T04:08:23.910Z,1021.67
2018-09-02T04:09:23.905Z,1021.64
2018-09-02T04:10:23.913Z,1021.66
2018-09-02T04:11:24.011Z,1021.63
2018-09-02T04:12:23.895Z,1021.65
2018-09-02T04:13:23.890Z,1021.64
2018-09-02T04:14:23.885Z,1021.64
2018-09-02T04:15:23.883Z,1021.62
2018-09-02T04:16:23.884Z,1021.58
2018-09-02T04:17:23.869Z,1021.59
2018-09-02T04:18:23.881Z,1021.56
2018-09-02T04:19:23.866Z,1021.55
2018-09-02T04:20:23.859Z,1021.54
2018-09-02T04:21:23.860Z,1021.52
2018-09-02T04:22:23.846Z,1021.52
2018-09-02T04:23:23.838Z,1021.55
2018-09-02T04:24:23.858Z,1021.55
2018-09-02T04:25:23.829Z,1021.54
2018-09-02T04:26:23.824Z,1021.54
2018-09-02T04:27:23.830Z,1021.55
2018-09-02T04:28:23.831Z,1021.52
2018-09-02T04:29:23.815Z,1021.53
2018-09-02T04:30:23.815Z,1021.52
2018-09-02T04:31:23.804Z,1021.53
2018-09-02T04:32:23.801Z,1021.50
2018-09-02T04:33:23.805Z,1021.47
2018-09-02T04:34:23.824Z,1021.48
2018-09-02T04:35:23.781Z,1021.49
2018-09-02T04:36:23.779Z,1021.48
2018-09-02T04:37:23.770Z,1021.49
2018-09-02T04:38:23.779Z,1021.50
2018-09-02T04:39:23.764Z,1021.49
2018-09-02T04:40:23.765Z,1021.55
2018-09-02T04:41:23.754Z,1021.53
2018-09-02T04:42:23.751Z,1021.55
2018-09-02T04:43:23.764Z,1021.55
2018-09-02T04:44:23.741Z,1021.56
2018-09-02T04:45:23.776Z,1021.55
2018-09-02T04:46:23.729Z,1021.56
2018-09-02T04:47:23.725Z,1021.51
2018-09-02T04:48:23.719Z,1021.52
2018-09-02T04:49:23.711Z,1021.51
2018-09-02T04:50:23.704Z,1021.48
2018-09-02T04:51:23.705Z,1021.52
2018-09-02T04:52:23.703Z,1021.51
2018-09-02T04:53:23.696Z,1021.54
2018-09-02T04:54:23.873Z,1021.53
2018-09-02T04:55:23.681Z,1021.56
2018-09-02T04:56:23.670Z,1021.54
2018-09-02T04:57:23.679Z,1021.54
2018-09-02T04:58:23.684Z,1021.54
2018-09-02T04:59:23.661Z,1021.54
2018-09-02T05:00:23.775Z,1021.56
2018-09-02T05:01:23.644Z,1021.58
2018-09-02T05:02:23.645Z,1021.55
2018-09-02T05:03:23.645Z,1021.56
2018-09-02T05:04:23.635Z,1021.55
2018-09-02T05:05:23.642Z,1021.58
2018-09-02T05:06:23.625Z,1021.53
2018-09-02T05:07:23.610Z,1021.50
2018-09-02T05:08:23.625Z,1021.51
2018-09-02T05:09:23.615Z,1021.49
2018-09-02T05:10:23.634Z,1021.54
2018-09-02T05:11:23.596Z,1021.55
2018-09-02T05:12:23.594Z,1021.58
2018-09-02T05:13:23.591Z,1021.54
2018-09-02T05:14:23.590Z,1021.53
2018-09-02T05:15:23.594Z,1021.54
2018-09-02T05:16:23.580Z,1021.55
2018-09-02T05:17:23.577Z,1021.49
2018-09-02T05:18:23.569Z,1021.52
2018-09-02T05:19:23.560Z,1021.52
2018-09-02T05:20:23.562Z,1021.50
2018-09-02T05:21:23.547Z,1021.56
2018-09-02T05:22:23.551Z,1021.52
2018-09-02T05:23:23.546Z,1021.58
2018-09-02T05:24:23.540Z,1021.53
2018-09-02T05:25:23.538Z,1021.55
2018-09-02T05:26:23.532Z,1021.60
2018-09-02T05:27:23.535Z,1021.59
2018-09-02T05:28:23.516Z,1021.54
2018-09-02T05:29:23.525Z,1021.57
2018-09-02T05:30:23.511Z,1021.60
2018-09-02T05:31:23.516Z,1021.58
2018-09-02T05:32:23.498Z,1021.62
2018-09-02T05:33:23.495Z,1021.65
2018-09-02T05:34:23.486Z,1021.65
2018-09-02T05:35:23.492Z,1021.63
2018-09-02T05:36:23.477Z,1021.66
2018-09-02T05:37:23.472Z,1021.68
2018-09-02T05:38:23.461Z,1021.65
2018-09-02T05:39:23.461Z,1021.69
2018-09-02T05:40:23.462Z,1021.66
2018-09-02T05:41:23.455Z,1021.65
2018-09-02T05:42:23.455Z,1021.68
2018-09-02T05:43:23.444Z,1021.71
2018-09-02T05:44:23.436Z,1021.72
2018-09-02T05:45:23.431Z,1021.69
2018-09-02T05:46:23.431Z,1021.68
2018-09-02T05:47:23.422Z,1021.72
2018-09-02T05:48:23.417Z,1021.71
2018-09-02T05:49:23.416Z,1021.68
2018-09-02T05:50:23.415Z,1021.70
2018-09-02T05:51:23.419Z,1021.68
2018-09-02T05:52:23.403Z,1021.71
2018-09-02T05:53:23.391Z,1021.69
2018-09-02T05:54:23.418Z,1021.73
2018-09-02T05:55:23.383Z,1021.72
2018-09-02T05:56:23.376Z,1021.73
2018-09-02T05:57:23.391Z,1021.74
2018-09-02T05:58:23.381Z,1021.71
2018-09-02T05:59:23.392Z,1021.73
2018-09-02T06:00:23.359Z,1021.70
2018-09-02T06:01:23.366Z,1021.73
2018-09-02T06:02:23.356Z,1021.69
2018-09-02T06:03:23.348Z,1021.72
2018-09-02T06:04:23.351Z,1021.70
2018-09-02T06:05:23.328Z,1021.76
2018-09-02T06:06:23.333Z,1021.77
2018-09-02T06:07:23.326Z,1021.82
2018-09-02T06:08:23.319Z,1021.85
2018-09-02T06:09:23.301Z,1021.80
2018-09-02T06:10:23.311Z,1021.82
2018-09-02T06:11:23.326Z,1021.78
2018-09-02T06:12:23.303Z,1021.75
2018-09-02T06:13:23.297Z,1021.76
2018-09-02T06:14:23.301Z,1021.79
2018-09-02T06:15:23.288Z,1021.80
2018-09-02T06:16:23.278Z,1021.80
2018-09-02T06:17:23.311Z,1021.82
2018-09-02T06:18:23.277Z,1021.83
2018-09-02T06:19:23.268Z,1021.82
2018-09-02T06:20:23.253Z,1021.80
2018-09-02T06:21:23.252Z,1021.81
2018-09-02T06:22:23.252Z,1021.86
2018-09-02T06:23:23.242Z,1021.81
2018-09-02T06:24:23.231Z,1021.81
2018-09-02T06:25:23.237Z,1021.80
2018-09-02T06:26:23.232Z,1021.82
2018-09-02T06:27:23.223Z,1021.80
2018-09-02T06:28:23.253Z,1021.79
2018-09-02T06:29:23.235Z,1021.81
2018-09-02T06:30:23.212Z,1021.82
2018-09-02T06:31:23.212Z,1021.77
2018-09-02T06:32:23.211Z,1021.77
2018-09-02T06:33:23.239Z,1021.76
2018-09-02T06:34:23.187Z,1021.75
2018-09-02T06:35:23.193Z,1021.76
2018-09-02T06:36:23.176Z,1021.76
2018-09-02T06:37:23.177Z,1021.76
2018-09-02T06:38:23.170Z,1021.75
2018-09-02T06:39:23.184Z,1021.78
2018-09-02T06:40:23.165Z,1021.75
2018-09-02T06:41:23.198Z,1021.77
2018-09-02T06:42:23.157Z,1021.82
2018-09-02T06:43:23.152Z,1021.77
2018-09-02T06:44:23.139Z,1021.77
2018-09-02T06:45:23.131Z,1021.74
2018-09-02T06:46:23.121Z,1021.76
2018-09-02T06:47:23.129Z,1021.75
2018-09-02T06:48:23.123Z,1021.73
2018-09-02T06:49:23.132Z,1021.73
2018-09-02T06:50:23.113Z,1021.73
2018-09-02T06:51:23.128Z,1021.72
2018-09-02T06:52:23.111Z,1021.73
2018-09-02T06:53:23.118Z,1021.74
2018-09-02T06:54:23.083Z,1021.76
2018-09-02T06:55:23.083Z,1021.73
2018-09-02T06:56:23.082Z,1021.78
2018-09-02T06:57:23.089Z,1021.77
2018-09-02T06:58:23.064Z,1021.75
2018-09-02T06:59:23.058Z,1021.77
2018-09-02T07:00:23.064Z,1021.75
2018-09-02T07:01:23.052Z,1021.75
2018-09-02T07:02:23.058Z,1021.74
2018-09-02T07:03:23.048Z,1021.73
2018-09-02T07:04:23.045Z,1021.71
2018-09-02T07:05:23.048Z,1021.73
2018-09-02T07:06:23.033Z,1021.71
2018-09-02T07:07:23.105Z,1021.72
2018-09-02T07:08:23.039Z,1021.74
2018-09-02T07:09:23.017Z,1021.74
2018-09-02T07:10:23.054Z,1021.72
2018-09-02T07:11:23.008Z,1021.74
2018-09-02T07:12:23.014Z,1021.73
2018-09-02T07:13:23.004Z,1021.72
2018-09-02T07:14:23.017Z,1021.74
2018-09-02T07:15:22.984Z,1021.73
2018-09-02T07:16:23.011Z,1021.75
2018-09-02T07:17:22.983Z,1021.76
2018-09-02T07:18:22.991Z,1021.73
2018-09-02T07:19:22.973Z,1021.71
2018-09-02T07:20:22.969Z,1021.72
2018-09-02T07:21:22.972Z,1021.70
2018-09-02T07:22:22.967Z,1021.72
2018-09-02T07:23:22.956Z,1021.75
2018-09-02T07:24:22.962Z,1021.70
2018-09-02T07:25:22.967Z,1021.71
2018-09-02T07:26:22.938Z,1021.74
2018-09-02T07:27:22.946Z,1021.74
2018-09-02T07:28:22.932Z,1021.72
2018-09-02T07:29:22.943Z,1021.70
2018-09-02T07:30:22.919Z,1021.71
2018-09-02T07:31:22.995Z,1021.70
2018-09-02T07:32:22.917Z,1021.63
2018-09-02T07:33:22.933Z,1021.68
2018-09-02T07:34:22.902Z,1021.69
2018-09-02T07:35:22.909Z,1021.64
2018-09-02T07:36:22.884Z,1021.63
2018-09-02T07:37:22.902Z,1021.64
2018-09-02T07:38:22.894Z,1021.60
2018-09-02T07:39:22.885Z,1021.59
2018-09-02T07:40:22.897Z,1021.60
2018-09-02T07:41:22.872Z,1021.53
2018-09-02T07:42:22.861Z,1021.56
2018-09-02T07:43:22.848Z,1021.54
2018-09-02T07:44:22.855Z,1021.55
2018-09-02T07:45:22.864Z,1021.57
2018-09-02T07:46:22.844Z,1021.57
2018-09-02T07:47:22.847Z,1021.59
2018-09-02T07:48:22.832Z,1021.54
2018-09-02T07:49:22.833Z,1021.56
2018-09-02T07:50:22.838Z,1021.57
2018-09-02T07:51:22.827Z,1021.57
2018-09-02T07:52:22.823Z,1021.59
2018-09-02T07:53:22.814Z,1021.57
2018-09-02T07:54:22.811Z,1021.59
2018-09-02T07:55:22.808Z,1021.58
2018-09-02T07:56:22.807Z,1021.59
2018-09-02T07:57:22.793Z,1021.56
2018-09-02T07:58:22.798Z,1021.53
2018-09-02T07:59:22.791Z,1021.58
2018-09-02T08:00:22.778Z,1021.54
2018-09-02T08:01:22.790Z,1021.56
2018-09-02T08:02:22.764Z,1021.53
2018-09-02T08:03:22.778Z,1021.55
2018-09-02T08:04:22.764Z,1021.51
2018-09-02T08:05:22.780Z,1021.50
2018-09-02T08:06:22.784Z,1021.49
2018-09-02T08:07:22.770Z,1021.49
2018-09-02T08:08:22.740Z,1021.47
2018-09-02T08:09:22.743Z,1021.46
2018-09-02T08:10:22.743Z,1021.47
2018-09-02T08:11:22.739Z,1021.46
2018-09-02T08:12:22.797Z,1021.45
2018-09-02T08:13:22.749Z,1021.42
2018-09-02T08:14:22.732Z,1021.43
2018-09-02T08:15:22.716Z,1021.44
2018-09-02T08:16:22.704Z,1021.41
2018-09-02T08:17:22.718Z,1021.41
2018-09-02T08:18:22.704Z,1021.41
2018-09-02T08:19:22.700Z,1021.41
2018-09-02T08:20:22.694Z,1021.43
2018-09-02T08:21:22.698Z,1021.41
2018-09-02T08:22:22.684Z,1021.38
2018-09-02T08:23:22.699Z,1021.38
2018-09-02T08:24:22.675Z,1021.37
2018-09-02T08:25:22.664Z,1021.36
2018-09-02T08:26:22.674Z,1021.37
2018-09-02T08:27:22.683Z,1021.39
2018-09-02T08:28:22.673Z,1021.36
2018-09-02T08:29:22.651Z,1021.35
2018-09-02T08:30:22.644Z,1021.35
2018-09-02T08:31:22.673Z,1021.31
2018-09-02T08:32:22.633Z,1021.32
2018-09-02T08:33:22.628Z,1021.31
2018-09-02T08:34:22.631Z,1021.33
2018-09-02T08:35:22.618Z,1021.31
2018-09-02T08:36:22.623Z,1021.29
2018-09-02T08:37:22.628Z,1021.29
2018-09-02T08:38:22.625Z,1021.25
2018-09-02T08:39:22.605Z,1021.25
2018-09-02T08:40:22.609Z,1021.23
2018-09-02T08:41:22.600Z,1021.22
2018-09-02T08:42:22.615Z,1021.17
2018-09-02T08:43:22.586Z,1021.19
2018-09-02T08:44:22.633Z,1021.18
2018-09-02T08:45:22.576Z,1021.17
2018-09-02T08:46:22.573Z,1021.14
2018-09-02T08:47:22.573Z,1021.14
2018-09-02T08:48:22.561Z,1021.11
2018-09-02T08:49:22.558Z,1021.11
2018-09-02T08:50:22.599Z,1021.11
2018-09-02T08:51:22.561Z,1021.10
2018-09-02T08:52:22.543Z,1021.12
2018-09-02T08:53:22.545Z,1021.09
2018-09-02T08:54:22.535Z,1021.10
2018-09-02T08:55:22.530Z,1021.10
2018-09-02T08:56:22.544Z,1021.11
2018-09-02T08:57:22.525Z,1021.07
2018-09-02T08:58:22.535Z,1021.06
2018-09-02T08:59:22.511Z,1021.04
2018-09-02T09:00:22.509Z,1021.00
2018-09-02T09:01:22.520Z,1021.02
2018-09-02T09:02:22.500Z,1021.00
2018-09-02T09:03:22.519Z,1021.02
2018-09-02T09:04:22.495Z,1021.01
2018-09-02T09:05:22.500Z,1020.98
2018-09-02T09:06:22.485Z,1020.95
2018-09-02T09:07:22.503Z,1020.91
2018-09-02T09:08:22.649Z,1020.92
2018-09-02T09:09:22.575Z,1020.91
2018-09-02T09:10:22.465Z,1020.91
2018-09-02T09:11:22.454Z,1020.92
2018-09-02T09:12:22.477Z,1020.89
2018-09-02T09:13:22.454Z,1020.88
2018-09-02T09:14:22.456Z,1020.88
2018-09-02T09:15:22.454Z,1020.84
2018-09-02T09:16:22.456Z,1020.84
2018-09-02T09:17:22.436Z,1020.86
2018-09-02T09:18:22.431Z,1020.85
2018-09-02T09:19:22.424Z,1020.81
2018-09-02T09:20:22.428Z,1020.84
2018-09-02T09:21:22.460Z,1020.84
2018-09-02T09:22:22.415Z,1020.79
2018-09-02T09:23:22.485Z,1020.77
2018-09-02T09:24:22.411Z,1020.76
2018-09-02T09:25:22.406Z,1020.79
2018-09-02T09:26:22.400Z,1020.80
2018-09-02T09:27:22.391Z,1020.78
2018-09-02T09:28:22.414Z,1020.73
2018-09-02T09:29:22.396Z,1020.73
2018-09-02T09:30:22.382Z,1020.71
2018-09-02T09:31:22.375Z,1020.68
2018-09-02T09:32:22.435Z,1020.66
2018-09-02T09:33:22.375Z,1020.68
2018-09-02T09:34:22.359Z,1020.64
2018-09-02T09:35:22.361Z,1020.63
2018-09-02T09:36:22.361Z,1020.66
2018-09-02T09:37:22.351Z,1020.67
2018-09-02T09:38:22.335Z,1020.61
2018-09-02T09:39:22.342Z,1020.62
2018-09-02T09:40:22.340Z,1020.61
2018-09-02T09:41:22.340Z,1020.56
2018-09-02T09:42:22.327Z,1020.57
2018-09-02T09:43:22.327Z,1020.53
2018-09-02T09:44:22.332Z,1020.59
2018-09-02T09:45:22.311Z,1020.54
2018-09-02T09:46:22.320Z,1020.51
2018-09-02T09:47:22.311Z,1020.49
2018-09-02T09:48:22.311Z,1020.49
2018-09-02T09:49:22.296Z,1020.54
2018-09-02T09:50:22.300Z,1020.48
2018-09-02T09:51:22.296Z,1020.46
2018-09-02T09:52:22.285Z,1020.47
2018-09-02T09:53:22.312Z,1020.50
2018-09-02T09:54:22.279Z,1020.48
2018-09-02T09:55:22.277Z,1020.46
2018-09-02T09:56:22.275Z,1020.44
2018-09-02T09:57:22.251Z,1020.40
2018-09-02T09:58:22.261Z,1020.39
2018-09-02T09:59:22.258Z,1020.41
2018-09-02T10:00:22.235Z,1020.35
2018-09-02T10:01:22.275Z,1020.42
2018-09-02T10:02:22.236Z,1020.38
2018-09-02T10:03:22.235Z,1020.34
2018-09-02T10:04:22.230Z,1020.31
2018-09-02T10:05:22.230Z,1020.27
2018-09-02T10:06:22.216Z,1020.32
2018-09-02T10:07:22.215Z,1020.29
2018-09-02T10:08:22.206Z,1020.31
2018-09-02T10:09:22.216Z,1020.30
2018-09-02T10:10:22.226Z,1020.28
2018-09-02T10:11:22.204Z,1020.21
2018-09-02T10:12:22.203Z,1020.28
2018-09-02T10:13:22.193Z,1020.27
2018-09-02T10:14:22.208Z,1020.21
2018-09-02T10:15:22.180Z,1020.19
2018-09-02T10:16:22.173Z,1020.28
2018-09-02T10:17:22.257Z,1020.22
2018-09-02T10:18:22.171Z,1020.21
2018-09-02T10:19:22.187Z,1020.22
2018-09-02T10:20:22.154Z,1020.16
2018-09-02T10:21:22.156Z,1020.16
2018-09-02T10:22:22.160Z,1020.19
2018-09-02T10:23:22.171Z,1020.17
2018-09-02T10:24:22.140Z,1020.13
2018-09-02T10:25:22.142Z,1020.12
2018-09-02T10:26:22.127Z,1020.12
2018-09-02T10:27:22.223Z,1020.09
2018-09-02T10:28:22.138Z,1020.07
2018-09-02T10:29:22.140Z,1020.08
2018-09-02T10:30:22.136Z,1020.08
2018-09-02T10:31:22.116Z,1020.11
2018-09-02T10:32:22.112Z,1020.14
2018-09-02T10:33:22.167Z,1020.12
2018-09-02T10:34:22.096Z,1020.08
2018-09-02T10:35:22.082Z,1020.08
2018-09-02T10:36:22.087Z,1020.05
2018-09-02T10:37:22.090Z,1020.05
2018-09-02T10:38:22.087Z,1020.04
2018-09-02T10:39:22.067Z,1020.04
2018-09-02T10:40:22.071Z,1019.99
2018-09-02T10:41:22.093Z,1019.97
2018-09-02T10:42:22.067Z,1019.96
2018-09-02T10:43:22.059Z,1019.96
2018-09-02T10:44:22.057Z,1019.92
2018-09-02T10:45:22.055Z,1019.96
2018-09-02T10:46:22.047Z,1019.89
2018-09-02T10:47:22.085Z,1019.88
2018-09-02T10:48:22.036Z,1019.84
2018-09-02T10:49:22.053Z,1019.86
2018-09-02T10:50:22.050Z,1019.82
2018-09-02T10:51:22.016Z,1019.87
2018-09-02T10:52:22.008Z,1019.84
2018-09-02T10:53:22.005Z,1019.86
2018-09-02T10:54:22.010Z,1019.83
2018-09-02T10:55:22.019Z,1019.82
2018-09-02T10:56:21.998Z,1019.81
2018-09-02T10:57:22.006Z,1019.80
2018-09-02T10:58:22.001Z,1019.82
2018-09-02T10:59:21.995Z,1019.82
2018-09-02T11:00:22.011Z,1019.80
2018-09-02T11:01:22.003Z,1019.76
2018-09-02T11:02:21.977Z,1019.74
2018-09-02T11:03:21.967Z,1019.73
2018-09-02T11:04:21.963Z,1019.76
2018-09-02T11:05:21.974Z,1019.75
2018-09-02T11:06:21.953Z,1019.79
2018-09-02T11:07:21.947Z,1019.78
2018-09-02T11:08:21.942Z,1019.81
2018-09-02T11:09:21.937Z,1019.75
2018-09-02T11:10:21.932Z,1019.79
2018-09-02T11:11:21.951Z,1019.77
2018-09-02T11:12:21.926Z,1019.74
2018-09-02T11:13:22.016Z,1019.74
2018-09-02T11:14:21.948Z,1019.73
2018-09-02T11:15:21.927Z,1019.73
2018-09-02T11:16:21.922Z,1019.74
2018-09-02T11:17:21.907Z,1019.73
2018-09-02T11:18:21.908Z,1019.72
2018-09-02T11:19:21.904Z,1019.74
2018-09-02T11:20:21.893Z,1019.80
2018-09-02T11:21:21.890Z,1019.74
2018-09-02T11:22:21.888Z,1019.68
2018-09-02T11:23:21.873Z,1019.62
2018-09-02T11:24:21.877Z,1019.61
2018-09-02T11:25:22.147Z,1019.60
2018-09-02T11:26:21.874Z,1019.60
2018-09-02T11:27:21.868Z,1019.59
2018-09-02T11:28:21.928Z,1019.58
2018-09-02T11:29:21.867Z,1019.59
2018-09-02T11:30:21.861Z,1019.61
2018-09-02T11:31:21.859Z,1019.59
2018-09-02T11:32:21.912Z,1019.61
2018-09-02T11:33:21.836Z,1019.59
2018-09-02T11:34:21.919Z,1019.54
2018-09-02T11:35:21.818Z,1019.52
2018-09-02T11:36:21.833Z,1019.51
2018-09-02T11:37:21.809Z,1019.61
2018-09-02T11:38:21.853Z,1019.53
2018-09-02T11:39:21.821Z,1019.53
2018-09-02T11:40:21.809Z,1019.53
2018-09-02T11:41:21.807Z,1019.49
2018-09-02T11:42:21.796Z,1019.43
2018-09-02T11:43:21.783Z,1019.40
2018-09-02T11:44:21.807Z,1019.38
2018-09-02T11:45:21.802Z,1019.35
2018-09-02T11:46:21.784Z,1019.30
2018-09-02T11:47:21.834Z,1019.34
2018-09-02T11:48:21.766Z,1019.29
2018-09-02T11:49:21.767Z,1019.31
2018-09-02T11:50:21.778Z,1019.30
2018-09-02T11:51:21.749Z,1019.28
2018-09-02T11:52:21.751Z,1019.28
2018-09-02T11:53:21.740Z,1019.25
2018-09-02T11:54:21.767Z,1019.24
2018-09-02T11:55:21.729Z,1019.27
2018-09-02T11:56:21.738Z,1019.25
2018-09-02T11:57:21.889Z,1019.24
2018-09-02T11:58:21.729Z,1019.24
2018-09-02T11:59:21.714Z,1019.23
2018-09-02T12:00:21.713Z,1019.26
2018-09-02T12:01:21.719Z,1019.26
2018-09-02T12:02:21.728Z,1019.22
2018-09-02T12:03:22.158Z,1019.26
2018-09-02T12:04:21.696Z,1019.23
2018-09-02T12:05:21.695Z,1019.22